sensor_id;sensor_type;location;lat;lon;timestamp;noise_LAeq;noise_LA_min;noise_LA_max;noise_LA01;noise_LA95
69614;Laerm;57159;52.472;4.750;2022-09-29T00:00:08;48.85;48.06;49.53;;
69614;Laerm;57159;52.472;4.750;2022-09-29T00:00:18;48.92;48.07;49.79;;
69614;Laerm;57159;52.472;4.750;2022-09-29T00:00:29;48.90;47.79;49.89;;
69614;Laerm;57159;52.472;4.750;2022-09-29T00:00:39;48.92;47.76;49.78;;
69614;Laerm;57159;52.472;4.750;2022-09-29T00:00:50;48.92;47.95;49.72;;
69614;Laerm;57159;52.472;4.750;2022-09-29T00:01:01;48.91;48.18;49.78;;
69614;Laerm;57159;52.472;4.750;2022-09-29T00:01:15;48.88;47.58;49.92;;
69614;Laerm;57159;52.472;4.750;2022-09-29T00:01:25;48.95;48.01;49.97;;
69614;Laerm;57159;52.472;4.750;2022-09-29T00:01:36;48.88;47.93;49.72;;
69614;Laerm;57159;52.472;4.750;2022-09-29T00:01:46;49.01;48.20;50.24;;
69614;Laerm;57159;52.472;4.750;2022-09-29T00:01:56;48.89;47.98;49.83;;
69614;Laerm;57159;52.472;4.750;2022-09-29T00:02:06;48.91;47.94;49.68;;
69614;Laerm;57159;52.472;4.750;2022-09-29T00:02:17;48.93;47.83;49.72;;
69614;Laerm;57159;52.472;4.750;2022-09-29T00:02:27;48.91;48.09;49.65;;
69614;Laerm;57159;52.472;4.750;2022-09-29T00:02:37;48.89;48.05;49.61;;
69614;Laerm;57159;52.472;4.750;2022-09-29T00:02:48;48.91;48.04;49.75;;
69614;Laerm;57159;52.472;4.750;2022-09-29T00:02:58;48.91;47.93;49.75;;
69614;Laerm;57159;52.472;4.750;2022-09-29T00:03:08;48.87;47.97;49.61;;
69614;Laerm;57159;52.472;4.750;2022-09-29T00:03:19;48.90;47.96;49.70;;
69614;Laerm;57159;52.472;4.750;2022-09-29T00:03:30;48.87;47.79;49.70;;
69614;Laerm;57159;52.472;4.750;2022-09-29T00:03:40;48.90;48.06;49.69;;
69614;Laerm;57159;52.472;4.750;2022-09-29T00:03:50;48.86;48.02;50.09;;
69614;Laerm;57159;52.472;4.750;2022-09-29T00:04:00;48.90;47.85;49.73;;
69614;Laerm;57159;52.472;4.750;2022-09-29T00:04:12;48.91;47.96;49.98;;
69614;Laerm;57159;52.472;4.750;2022-09-29T00:04:22;48.86;48.04;49.95;;
69614;Laerm;57159;52.472;4.750;2022-09-29T00:04:32;48.87;48.05;49.97;;
69614;Laerm;57159;52.472;4.750;2022-09-29T00:04:43;48.88;47.87;49.78;;
69614;Laerm;57159;52.472;4.750;2022-09-29T00:04:53;48.90;48.00;49.90;;
69614;Laerm;57159;52.472;4.750;2022-09-29T00:05:03;48.92;47.87;49.73;;
69614;Laerm;57159;52.472;4.750;2022-09-29T00:05:14;48.88;47.88;49.85;;
69614;Laerm;57159;52.472;4.750;2022-09-29T00:05:24;48.85;47.76;49.60;;
69614;Laerm;57159;52.472;4.750;2022-09-29T00:05:34;48.89;48.00;49.76;;
69614;Laerm;57159;52.472;4.750;2022-09-29T00:05:48;48.89;48.08;49.75;;
69614;Laerm;57159;52.472;4.750;2022-09-29T00:05:59;48.89;47.91;49.89;;
69614;Laerm;57159;52.472;4.750;2022-09-29T00:06:10;48.90;48.05;49.72;;
69614;Laerm;57159;52.472;4.750;2022-09-29T00:06:21;48.89;48.04;49.68;;
69614;Laerm;57159;52.472;4.750;2022-09-29T00:06:31;48.90;47.97;49.82;;
69614;Laerm;57159;52.472;4.750;2022-09-29T00:06:41;48.88;47.71;49.75;;
69614;Laerm;57159;52.472;4.750;2022-09-29T00:06:52;48.89;47.97;49.77;;
69614;Laerm;57159;52.472;4.750;2022-09-29T00:07:02;48.86;47.80;49.81;;
69614;Laerm;57159;52.472;4.750;2022-09-29T00:07:12;48.85;47.83;49.75;;
69614;Laerm;57159;52.472;4.750;2022-09-29T00:07:22;48.90;47.93;49.67;;
69614;Laerm;57159;52.472;4.750;2022-09-29T00:07:33;48.89;48.11;49.76;;
69614;Laerm;57159;52.472;4.750;2022-09-29T00:07:43;48.87;47.87;49.84;;
69614;Laerm;57159;52.472;4.750;2022-09-29T00:07:53;48.87;47.76;49.93;;
69614;Laerm;57159;52.472;4.750;2022-09-29T00:08:05;48.91;48.17;50.18;;
69614;Laerm;57159;52.472;4.750;2022-09-29T00:08:16;48.85;48.05;49.70;;
69614;Laerm;57159;52.472;4.750;2022-09-29T00:08:27;48.88;48.01;49.87;;
69614;Laerm;57159;52.472;4.750;2022-09-29T00:08:37;48.88;48.06;49.99;;
69614;Laerm;57159;52.472;4.750;2022-09-29T00:08:47;48.87;47.93;49.76;;
69614;Laerm;57159;52.472;4.750;2022-09-29T00:08:58;48.86;48.07;49.76;;
69614;Laerm;57159;52.472;4.750;2022-09-29T00:09:08;48.89;47.75;49.84;;
69614;Laerm;57159;52.472;4.750;2022-09-29T00:09:18;48.88;47.72;49.91;;
69614;Laerm;57159;52.472;4.750;2022-09-29T00:09:28;48.88;47.94;49.62;;
69614;Laerm;57159;52.472;4.750;2022-09-29T00:09:40;48.88;47.95;49.81;;
69614;Laerm;57159;52.472;4.750;2022-09-29T00:09:50;48.87;47.82;49.89;;
69614;Laerm;57159;52.472;4.750;2022-09-29T00:10:00;48.88;47.88;49.79;;
69614;Laerm;57159;52.472;4.750;2022-09-29T00:10:10;48.88;47.78;49.85;;
69614;Laerm;57159;52.472;4.750;2022-09-29T00:10:21;48.88;47.77;49.82;;
69614;Laerm;57159;52.472;4.750;2022-09-29T00:10:31;48.88;47.86;49.83;;
69614;Laerm;57159;52.472;4.750;2022-09-29T00:10:41;48.88;47.95;49.76;;
69614;Laerm;57159;52.472;4.750;2022-09-29T00:10:52;48.87;48.06;49.84;;
69614;Laerm;57159;52.472;4.750;2022-09-29T00:11:05;48.88;47.86;49.91;;
69614;Laerm;57159;52.472;4.750;2022-09-29T00:11:16;48.86;47.86;50.09;;
69614;Laerm;57159;52.472;4.750;2022-09-29T00:11:27;48.87;47.92;49.66;;
69614;Laerm;57159;52.472;4.750;2022-09-29T00:11:37;48.90;47.97;49.65;;
69614;Laerm;57159;52.472;4.750;2022-09-29T00:11:47;48.85;48.01;49.55;;
69614;Laerm;57159;52.472;4.750;2022-09-29T00:11:57;48.85;48.03;49.70;;
69614;Laerm;57159;52.472;4.750;2022-09-29T00:12:08;48.84;47.96;49.76;;
69614;Laerm;57159;52.472;4.750;2022-09-29T00:12:18;48.87;48.07;49.70;;
69614;Laerm;57159;52.472;4.750;2022-09-29T00:12:28;48.85;48.00;50.02;;
69614;Laerm;57159;52.472;4.750;2022-09-29T00:12:38;48.86;47.96;49.70;;
69614;Laerm;57159;52.472;4.750;2022-09-29T00:12:49;48.86;47.83;49.77;;
69614;Laerm;57159;52.472;4.750;2022-09-29T00:12:59;48.85;47.96;49.66;;
69614;Laerm;57159;52.472;4.750;2022-09-29T00:13:09;48.87;47.69;49.87;;
69614;Laerm;57159;52.472;4.750;2022-09-29T00:13:20;48.88;47.76;49.60;;
69614;Laerm;57159;52.472;4.750;2022-09-29T00:13:30;48.87;47.98;49.75;;
69614;Laerm;57159;52.472;4.750;2022-09-29T00:13:40;48.86;47.82;49.74;;
69614;Laerm;57159;52.472;4.750;2022-09-29T00:13:51;48.85;47.93;49.71;;
69614;Laerm;57159;52.472;4.750;2022-09-29T00:14:03;48.86;48.03;49.64;;
69614;Laerm;57159;52.472;4.750;2022-09-29T00:14:13;48.88;48.00;49.72;;
69614;Laerm;57159;52.472;4.750;2022-09-29T00:14:24;48.87;47.91;49.76;;
69614;Laerm;57159;52.472;4.750;2022-09-29T00:14:34;48.87;48.06;49.76;;
69614;Laerm;57159;52.472;4.750;2022-09-29T00:14:44;48.86;47.82;49.63;;
69614;Laerm;57159;52.472;4.750;2022-09-29T00:14:54;48.91;47.78;49.72;;
69614;Laerm;57159;52.472;4.750;2022-09-29T00:15:05;48.87;47.72;49.80;;
69614;Laerm;57159;52.472;4.750;2022-09-29T00:15:16;48.84;48.01;49.71;;
69614;Laerm;57159;52.472;4.750;2022-09-29T00:15:26;48.87;48.01;49.73;;
69614;Laerm;57159;52.472;4.750;2022-09-29T00:15:36;48.89;47.95;50.06;;
69614;Laerm;57159;52.472;4.750;2022-09-29T00:15:54;48.90;47.85;49.77;;
69614;Laerm;57159;52.472;4.750;2022-09-29T00:16:04;48.88;47.98;49.90;;
69614;Laerm;57159;52.472;4.750;2022-09-29T00:16:14;48.91;47.84;49.74;;
69614;Laerm;57159;52.472;4.750;2022-09-29T00:16:25;48.84;48.05;49.69;;
69614;Laerm;57159;52.472;4.750;2022-09-29T00:16:35;48.87;47.69;49.71;;
69614;Laerm;57159;52.472;4.750;2022-09-29T00:16:45;48.88;47.96;50.02;;
69614;Laerm;57159;52.472;4.750;2022-09-29T00:16:56;48.91;48.07;49.78;;
69614;Laerm;57159;52.472;4.750;2022-09-29T00:17:06;48.91;48.01;49.89;;
69614;Laerm;57159;52.472;4.750;2022-09-29T00:17:16;48.88;47.67;49.66;;
69614;Laerm;57159;52.472;4.750;2022-09-29T00:17:27;48.89;47.79;49.88;;
69614;Laerm;57159;52.472;4.750;2022-09-29T00:17:37;48.89;47.90;49.90;;
69614;Laerm;57159;52.472;4.750;2022-09-29T00:17:47;48.86;47.53;49.83;;
69614;Laerm;57159;52.472;4.750;2022-09-29T00:17:58;48.85;47.88;49.79;;
69614;Laerm;57159;52.472;4.750;2022-09-29T00:18:08;48.89;47.97;49.82;;
69614;Laerm;57159;52.472;4.750;2022-09-29T00:18:20;48.89;47.93;49.82;;
69614;Laerm;57159;52.472;4.750;2022-09-29T00:18:31;48.88;47.76;49.85;;
69614;Laerm;57159;52.472;4.750;2022-09-29T00:18:41;48.83;48.11;49.77;;
69614;Laerm;57159;52.472;4.750;2022-09-29T00:18:55;48.86;47.84;49.76;;
69614;Laerm;57159;52.472;4.750;2022-09-29T00:19:06;48.87;47.92;49.72;;
69614;Laerm;57159;52.472;4.750;2022-09-29T00:19:16;48.88;48.17;49.71;;
69614;Laerm;57159;52.472;4.750;2022-09-29T00:19:27;48.89;47.92;49.85;;
69614;Laerm;57159;52.472;4.750;2022-09-29T00:19:37;48.87;47.99;49.71;;
69614;Laerm;57159;52.472;4.750;2022-09-29T00:19:48;48.88;47.84;49.83;;
69614;Laerm;57159;52.472;4.750;2022-09-29T00:19:58;48.89;47.90;49.73;;
69614;Laerm;57159;52.472;4.750;2022-09-29T00:20:09;48.90;47.98;49.69;;
69614;Laerm;57159;52.472;4.750;2022-09-29T00:20:19;48.85;47.85;49.59;;
69614;Laerm;57159;52.472;4.750;2022-09-29T00:20:30;48.90;47.91;49.72;;
69614;Laerm;57159;52.472;4.750;2022-09-29T00:20:40;48.86;47.89;49.75;;
69614;Laerm;57159;52.472;4.750;2022-09-29T00:21:13;48.87;47.58;49.58;;
69614;Laerm;57159;52.472;4.750;2022-09-29T00:21:24;48.88;48.02;49.84;;
69614;Laerm;57159;52.472;4.750;2022-09-29T00:21:34;48.89;47.81;49.70;;
69614;Laerm;57159;52.472;4.750;2022-09-29T00:21:45;48.89;47.97;49.69;;
69614;Laerm;57159;52.472;4.750;2022-09-29T00:21:55;48.88;47.94;49.87;;
69614;Laerm;57159;52.472;4.750;2022-09-29T00:22:05;48.82;47.91;49.68;;
69614;Laerm;57159;52.472;4.750;2022-09-29T00:22:15;48.87;47.72;49.73;;
69614;Laerm;57159;52.472;4.750;2022-09-29T00:22:26;48.89;48.08;49.71;;
69614;Laerm;57159;52.472;4.750;2022-09-29T00:22:36;48.90;47.92;49.79;;
69614;Laerm;57159;52.472;4.750;2022-09-29T00:22:48;48.88;47.85;49.88;;
69614;Laerm;57159;52.472;4.750;2022-09-29T00:22:58;48.89;47.96;49.78;;
69614;Laerm;57159;52.472;4.750;2022-09-29T00:23:08;48.87;47.97;49.89;;
69614;Laerm;57159;52.472;4.750;2022-09-29T00:23:19;48.86;48.03;49.64;;
69614;Laerm;57159;52.472;4.750;2022-09-29T00:23:32;48.84;48.02;49.78;;
69614;Laerm;57159;52.472;4.750;2022-09-29T00:23:43;48.90;48.07;49.77;;
69614;Laerm;57159;52.472;4.750;2022-09-29T00:23:53;48.87;47.82;49.87;;
69614;Laerm;57159;52.472;4.750;2022-09-29T00:24:03;48.87;48.01;49.82;;
69614;Laerm;57159;52.472;4.750;2022-09-29T00:24:13;48.89;47.88;49.61;;
69614;Laerm;57159;52.472;4.750;2022-09-29T00:24:24;48.90;47.85;49.72;;
69614;Laerm;57159;52.472;4.750;2022-09-29T00:24:35;48.87;47.80;49.65;;
69614;Laerm;57159;52.472;4.750;2022-09-29T00:24:45;48.88;48.08;49.86;;
69614;Laerm;57159;52.472;4.750;2022-09-29T00:24:56;48.86;48.05;49.61;;
69614;Laerm;57159;52.472;4.750;2022-09-29T00:25:06;48.86;47.89;49.70;;
69614;Laerm;57159;52.472;4.750;2022-09-29T00:25:17;48.87;47.98;49.77;;
69614;Laerm;57159;52.472;4.750;2022-09-29T00:25:28;48.87;47.73;49.63;;
69614;Laerm;57159;52.472;4.750;2022-09-29T00:25:38;48.88;47.92;49.62;;
69614;Laerm;57159;52.472;4.750;2022-09-29T00:25:57;48.88;47.80;49.91;;
69614;Laerm;57159;52.472;4.750;2022-09-29T00:26:11;48.87;47.92;50.23;;
69614;Laerm;57159;52.472;4.750;2022-09-29T00:26:22;48.87;48.01;49.77;;
69614;Laerm;57159;52.472;4.750;2022-09-29T00:26:33;48.90;47.84;49.88;;
69614;Laerm;57159;52.472;4.750;2022-09-29T00:26:43;48.89;47.78;49.70;;
69614;Laerm;57159;52.472;4.750;2022-09-29T00:26:55;48.90;47.95;49.88;;
69614;Laerm;57159;52.472;4.750;2022-09-29T00:27:06;48.90;48.10;49.73;;
69614;Laerm;57159;52.472;4.750;2022-09-29T00:27:17;48.85;48.05;49.72;;
69614;Laerm;57159;52.472;4.750;2022-09-29T00:27:27;48.89;47.92;49.98;;
69614;Laerm;57159;52.472;4.750;2022-09-29T00:27:37;48.89;48.12;49.88;;
69614;Laerm;57159;52.472;4.750;2022-09-29T00:27:48;48.89;47.97;49.65;;
69614;Laerm;57159;52.472;4.750;2022-09-29T00:27:58;48.90;47.53;49.70;;
69614;Laerm;57159;52.472;4.750;2022-09-29T00:28:08;48.87;47.93;49.72;;
69614;Laerm;57159;52.472;4.750;2022-09-29T00:28:18;48.88;48.08;49.79;;
69614;Laerm;57159;52.472;4.750;2022-09-29T00:28:29;48.88;47.65;50.18;;
69614;Laerm;57159;52.472;4.750;2022-09-29T00:28:40;48.87;47.88;50.08;;
69614;Laerm;57159;52.472;4.750;2022-09-29T00:28:54;48.88;48.05;49.81;;
69614;Laerm;57159;52.472;4.750;2022-09-29T00:29:05;48.88;47.98;49.77;;
69614;Laerm;57159;52.472;4.750;2022-09-29T00:29:16;48.92;47.87;49.69;;
69614;Laerm;57159;52.472;4.750;2022-09-29T00:29:26;48.86;47.64;49.83;;
69614;Laerm;57159;52.472;4.750;2022-09-29T00:29:36;48.87;47.88;49.87;;
69614;Laerm;57159;52.472;4.750;2022-09-29T00:29:47;48.92;48.11;49.99;;
69614;Laerm;57159;52.472;4.750;2022-09-29T00:29:57;48.90;47.91;49.71;;
69614;Laerm;57159;52.472;4.750;2022-09-29T00:30:07;48.83;47.85;49.63;;
69614;Laerm;57159;52.472;4.750;2022-09-29T00:30:17;48.86;47.91;49.69;;
69614;Laerm;57159;52.472;4.750;2022-09-29T00:30:28;48.87;48.16;49.61;;
69614;Laerm;57159;52.472;4.750;2022-09-29T00:30:38;48.88;47.82;49.64;;
69614;Laerm;57159;52.472;4.750;2022-09-29T00:30:48;48.87;47.80;49.75;;
69614;Laerm;57159;52.472;4.750;2022-09-29T00:30:59;48.89;47.92;50.14;;
69614;Laerm;57159;52.472;4.750;2022-09-29T00:31:10;48.87;47.73;49.87;;
69614;Laerm;57159;52.472;4.750;2022-09-29T00:31:22;48.86;47.92;50.12;;
69614;Laerm;57159;52.472;4.750;2022-09-29T00:31:32;48.89;47.89;49.90;;
69614;Laerm;57159;52.472;4.750;2022-09-29T00:31:42;48.89;47.66;49.71;;
69614;Laerm;57159;52.472;4.750;2022-09-29T00:31:53;48.88;47.85;49.83;;
69614;Laerm;57159;52.472;4.750;2022-09-29T00:32:03;48.91;48.08;49.84;;
69614;Laerm;57159;52.472;4.750;2022-09-29T00:32:13;48.88;47.99;49.99;;
69614;Laerm;57159;52.472;4.750;2022-09-29T00:32:24;48.91;47.84;50.35;;
69614;Laerm;57159;52.472;4.750;2022-09-29T00:32:34;48.89;47.78;50.17;;
69614;Laerm;57159;52.472;4.750;2022-09-29T00:32:44;48.86;47.85;49.86;;
69614;Laerm;57159;52.472;4.750;2022-09-29T00:32:54;48.88;47.89;49.77;;
69614;Laerm;57159;52.472;4.750;2022-09-29T00:33:04;48.89;47.70;49.81;;
69614;Laerm;57159;52.472;4.750;2022-09-29T00:33:15;48.86;47.63;49.61;;
69614;Laerm;57159;52.472;4.750;2022-09-29T00:33:27;48.87;47.95;49.77;;
69614;Laerm;57159;52.472;4.750;2022-09-29T00:33:37;48.89;47.69;49.58;;
69614;Laerm;57159;52.472;4.750;2022-09-29T00:33:48;48.90;47.72;49.94;;
69614;Laerm;57159;52.472;4.750;2022-09-29T00:33:59;48.87;47.95;49.71;;
69614;Laerm;57159;52.472;4.750;2022-09-29T00:34:09;48.85;47.89;49.72;;
69614;Laerm;57159;52.472;4.750;2022-09-29T00:34:20;48.85;47.98;49.74;;
69614;Laerm;57159;52.472;4.750;2022-09-29T00:34:30;48.86;47.95;49.93;;
69614;Laerm;57159;52.472;4.750;2022-09-29T00:34:40;48.90;47.86;49.89;;
69614;Laerm;57159;52.472;4.750;2022-09-29T00:34:50;48.90;47.76;49.70;;
69614;Laerm;57159;52.472;4.750;2022-09-29T00:35:01;48.91;48.03;49.74;;
69614;Laerm;57159;52.472;4.750;2022-09-29T00:35:11;48.84;47.98;49.74;;
69614;Laerm;57159;52.472;4.750;2022-09-29T00:35:21;48.87;47.97;49.76;;
69614;Laerm;57159;52.472;4.750;2022-09-29T00:35:31;48.91;48.09;49.59;;
69614;Laerm;57159;52.472;4.750;2022-09-29T00:35:42;48.87;47.91;49.72;;
69614;Laerm;57159;52.472;4.750;2022-09-29T00:35:58;48.89;47.94;49.83;;
69614;Laerm;57159;52.472;4.750;2022-09-29T00:36:13;48.89;47.82;49.83;;
69614;Laerm;57159;52.472;4.750;2022-09-29T00:36:24;48.88;47.80;49.79;;
69614;Laerm;57159;52.472;4.750;2022-09-29T00:36:37;48.90;47.95;50.13;;
69614;Laerm;57159;52.472;4.750;2022-09-29T00:36:47;48.88;47.96;49.73;;
69614;Laerm;57159;52.472;4.750;2022-09-29T00:36:57;48.89;48.01;49.71;;
69614;Laerm;57159;52.472;4.750;2022-09-29T00:37:08;48.90;47.95;49.70;;
69614;Laerm;57159;52.472;4.750;2022-09-29T00:37:18;48.91;47.95;49.74;;
69614;Laerm;57159;52.472;4.750;2022-09-29T00:37:28;48.90;47.83;49.80;;
69614;Laerm;57159;52.472;4.750;2022-09-29T00:37:38;48.86;48.04;49.98;;
69614;Laerm;57159;52.472;4.750;2022-09-29T00:37:49;48.88;47.95;49.72;;
69614;Laerm;57159;52.472;4.750;2022-09-29T00:37:59;48.92;48.07;49.75;;
69614;Laerm;57159;52.472;4.750;2022-09-29T00:38:09;48.88;48.04;49.75;;
69614;Laerm;57159;52.472;4.750;2022-09-29T00:38:20;48.90;48.03;50.01;;
69614;Laerm;57159;52.472;4.750;2022-09-29T00:38:30;48.91;48.05;49.81;;
69614;Laerm;57159;52.472;4.750;2022-09-29T00:38:41;48.93;48.02;49.82;;
69614;Laerm;57159;52.472;4.750;2022-09-29T00:38:52;48.90;48.00;49.82;;
69614;Laerm;57159;52.472;4.750;2022-09-29T00:39:02;48.87;47.89;49.68;;
69614;Laerm;57159;52.472;4.750;2022-09-29T00:39:13;48.91;48.07;49.90;;
69614;Laerm;57159;52.472;4.750;2022-09-29T00:39:23;48.88;48.08;49.70;;
69614;Laerm;57159;52.472;4.750;2022-09-29T00:39:34;48.90;48.01;49.77;;
69614;Laerm;57159;52.472;4.750;2022-09-29T00:39:44;48.86;47.97;49.74;;
69614;Laerm;57159;52.472;4.750;2022-09-29T00:39:54;48.89;47.91;49.88;;
69614;Laerm;57159;52.472;4.750;2022-09-29T00:40:05;48.88;47.96;49.79;;
69614;Laerm;57159;52.472;4.750;2022-09-29T00:40:15;48.88;47.96;49.98;;
69614;Laerm;57159;52.472;4.750;2022-09-29T00:40:25;48.88;48.01;49.83;;
69614;Laerm;57159;52.472;4.750;2022-09-29T00:40:36;48.89;47.77;49.65;;
69614;Laerm;57159;52.472;4.750;2022-09-29T00:40:46;48.87;47.92;49.72;;
69614;Laerm;57159;52.472;4.750;2022-09-29T00:40:56;48.90;47.93;49.67;;
69614;Laerm;57159;52.472;4.750;2022-09-29T00:41:07;48.87;48.02;49.67;;
69614;Laerm;57159;52.472;4.750;2022-09-29T00:41:23;48.87;48.11;49.67;;
69614;Laerm;57159;52.472;4.750;2022-09-29T00:41:34;48.89;48.13;49.83;;
69614;Laerm;57159;52.472;4.750;2022-09-29T00:41:45;48.92;48.04;49.80;;
69614;Laerm;57159;52.472;4.750;2022-09-29T00:41:55;48.89;47.90;49.79;;
69614;Laerm;57159;52.472;4.750;2022-09-29T00:42:08;48.89;47.92;49.79;;
69614;Laerm;57159;52.472;4.750;2022-09-29T00:42:19;48.89;48.10;49.81;;
69614;Laerm;57159;52.472;4.750;2022-09-29T00:42:30;48.89;47.90;49.84;;
69614;Laerm;57159;52.472;4.750;2022-09-29T00:42:41;48.87;47.79;49.75;;
69614;Laerm;57159;52.472;4.750;2022-09-29T00:42:52;48.90;48.02;49.89;;
69614;Laerm;57159;52.472;4.750;2022-09-29T00:43:02;48.87;48.06;49.88;;
69614;Laerm;57159;52.472;4.750;2022-09-29T00:43:13;48.89;47.95;49.66;;
69614;Laerm;57159;52.472;4.750;2022-09-29T00:43:47;48.86;47.83;49.85;;
69614;Laerm;57159;52.472;4.750;2022-09-29T00:45:26;48.89;47.99;49.68;;
69614;Laerm;57159;52.472;4.750;2022-09-29T00:45:36;48.89;48.02;49.87;;
69614;Laerm;57159;52.472;4.750;2022-09-29T00:45:47;48.90;47.99;49.64;;
69614;Laerm;57159;52.472;4.750;2022-09-29T00:45:58;48.88;47.97;49.93;;
69614;Laerm;57159;52.472;4.750;2022-09-29T00:46:08;48.89;47.98;50.01;;
69614;Laerm;57159;52.472;4.750;2022-09-29T00:46:26;48.89;47.77;49.74;;
69614;Laerm;57159;52.472;4.750;2022-09-29T00:46:50;48.91;48.01;49.80;;
69614;Laerm;57159;52.472;4.750;2022-09-29T00:47:02;48.87;47.30;49.83;;
69614;Laerm;57159;52.472;4.750;2022-09-29T00:47:14;48.91;48.02;49.82;;
69614;Laerm;57159;52.472;4.750;2022-09-29T00:47:26;48.90;47.79;49.93;;
69614;Laerm;57159;52.472;4.750;2022-09-29T00:47:37;48.86;47.79;49.56;;
69614;Laerm;57159;52.472;4.750;2022-09-29T00:48:13;48.87;47.86;49.80;;
69614;Laerm;57159;52.472;4.750;2022-09-29T00:48:24;48.90;47.85;49.90;;
69614;Laerm;57159;52.472;4.750;2022-09-29T00:48:39;48.88;47.79;49.86;;
69614;Laerm;57159;52.472;4.750;2022-09-29T00:48:50;48.87;47.49;49.94;;
69614;Laerm;57159;52.472;4.750;2022-09-29T00:49:09;48.91;47.76;49.81;;
69614;Laerm;57159;52.472;4.750;2022-09-29T00:49:26;48.87;47.90;49.70;;
69614;Laerm;57159;52.472;4.750;2022-09-29T00:49:39;48.91;48.09;49.89;;
69614;Laerm;57159;52.472;4.750;2022-09-29T00:49:56;48.90;48.02;49.93;;
69614;Laerm;57159;52.472;4.750;2022-09-29T00:50:41;48.95;47.93;49.99;;
69614;Laerm;57159;52.472;4.750;2022-09-29T00:50:53;48.91;47.88;49.90;;
69614;Laerm;57159;52.472;4.750;2022-09-29T00:51:05;48.89;48.06;49.87;;
69614;Laerm;57159;52.472;4.750;2022-09-29T00:51:15;48.91;47.93;49.72;;
69614;Laerm;57159;52.472;4.750;2022-09-29T00:51:26;48.98;48.19;49.84;;
69614;Laerm;57159;52.472;4.750;2022-09-29T00:51:36;48.92;47.96;50.02;;
69614;Laerm;57159;52.472;4.750;2022-09-29T00:52:06;48.96;48.08;50.09;;
69614;Laerm;57159;52.472;4.750;2022-09-29T00:52:41;48.99;47.90;50.26;;
69614;Laerm;57159;52.472;4.750;2022-09-29T00:52:54;48.99;48.12;49.98;;
69614;Laerm;57159;52.472;4.750;2022-09-29T00:53:07;49.00;47.93;50.11;;
69614;Laerm;57159;52.472;4.750;2022-09-29T00:53:21;48.91;47.71;49.73;;
69614;Laerm;57159;52.472;4.750;2022-09-29T00:53:32;48.92;47.80;49.86;;
69614;Laerm;57159;52.472;4.750;2022-09-29T00:53:43;48.95;48.10;50.05;;
69614;Laerm;57159;52.472;4.750;2022-09-29T00:53:53;48.92;47.87;49.66;;
69614;Laerm;57159;52.472;4.750;2022-09-29T00:54:04;48.94;47.92;49.75;;
69614;Laerm;57159;52.472;4.750;2022-09-29T00:54:16;48.95;47.80;50.12;;
69614;Laerm;57159;52.472;4.750;2022-09-29T00:54:28;48.93;47.98;49.71;;
69614;Laerm;57159;52.472;4.750;2022-09-29T00:54:44;48.90;48.04;49.69;;
69614;Laerm;57159;52.472;4.750;2022-09-29T00:54:56;48.95;48.01;50.19;;
69614;Laerm;57159;52.472;4.750;2022-09-29T00:55:22;48.91;47.68;49.98;;
69614;Laerm;57159;52.472;4.750;2022-09-29T00:55:35;48.89;47.66;49.99;;
69614;Laerm;57159;52.472;4.750;2022-09-29T00:56:24;48.98;47.61;50.12;;
69614;Laerm;57159;52.472;4.750;2022-09-29T00:56:35;49.07;48.20;49.93;;
69614;Laerm;57159;52.472;4.750;2022-09-29T00:56:47;49.07;47.84;49.82;;
69614;Laerm;57159;52.472;4.750;2022-09-29T00:56:59;49.07;48.00;50.15;;
69614;Laerm;57159;52.472;4.750;2022-09-29T00:57:11;48.93;48.06;49.98;;
69614;Laerm;57159;52.472;4.750;2022-09-29T00:57:24;48.92;47.86;49.67;;
69614;Laerm;57159;52.472;4.750;2022-09-29T00:57:39;48.95;48.03;49.76;;
69614;Laerm;57159;52.472;4.750;2022-09-29T00:59:01;48.94;48.13;49.87;;
69614;Laerm;57159;52.472;4.750;2022-09-29T00:59:13;48.96;47.77;49.93;;
69614;Laerm;57159;52.472;4.750;2022-09-29T00:59:26;48.90;48.16;49.72;;
69614;Laerm;57159;52.472;4.750;2022-09-29T01:00:03;48.90;47.91;49.83;;
69614;Laerm;57159;52.472;4.750;2022-09-29T01:00:14;48.92;47.84;49.92;;
69614;Laerm;57159;52.472;4.750;2022-09-29T01:00:25;48.90;48.11;49.75;;
69614;Laerm;57159;52.472;4.750;2022-09-29T01:00:35;48.89;47.83;49.80;;
69614;Laerm;57159;52.472;4.750;2022-09-29T01:00:46;48.91;48.00;49.66;;
69614;Laerm;57159;52.472;4.750;2022-09-29T01:00:56;48.85;47.76;49.54;;
69614;Laerm;57159;52.472;4.750;2022-09-29T01:01:07;48.91;47.87;49.84;;
69614;Laerm;57159;52.472;4.750;2022-09-29T01:01:18;48.93;47.96;49.82;;
69614;Laerm;57159;52.472;4.750;2022-09-29T01:01:29;48.91;47.94;49.84;;
69614;Laerm;57159;52.472;4.750;2022-09-29T01:01:40;48.88;48.02;49.68;;
69614;Laerm;57159;52.472;4.750;2022-09-29T01:01:50;48.92;47.99;49.86;;
69614;Laerm;57159;52.472;4.750;2022-09-29T01:02:01;48.89;47.82;49.64;;
69614;Laerm;57159;52.472;4.750;2022-09-29T01:02:14;48.92;47.77;49.89;;
69614;Laerm;57159;52.472;4.750;2022-09-29T01:02:25;48.92;47.88;49.91;;
69614;Laerm;57159;52.472;4.750;2022-09-29T01:03:16;48.92;47.75;49.82;;
69614;Laerm;57159;52.472;4.750;2022-09-29T01:03:36;48.87;48.10;49.62;;
69614;Laerm;57159;52.472;4.750;2022-09-29T01:03:37;48.89;47.99;49.67;;
69614;Laerm;57159;52.472;4.750;2022-09-29T01:03:47;48.91;47.82;49.87;;
69614;Laerm;57159;52.472;4.750;2022-09-29T01:04:04;48.94;47.97;49.74;;
69614;Laerm;57159;52.472;4.750;2022-09-29T01:04:16;48.95;47.97;49.92;;
69614;Laerm;57159;52.472;4.750;2022-09-29T01:04:28;48.94;48.04;49.70;;
69614;Laerm;57159;52.472;4.750;2022-09-29T01:04:38;48.89;48.05;49.68;;
69614;Laerm;57159;52.472;4.750;2022-09-29T01:04:49;48.92;48.03;49.75;;
69614;Laerm;57159;52.472;4.750;2022-09-29T01:05:02;48.93;48.03;49.78;;
69614;Laerm;57159;52.472;4.750;2022-09-29T01:05:17;48.91;47.84;49.89;;
69614;Laerm;57159;52.472;4.750;2022-09-29T01:05:31;48.86;48.05;49.90;;
69614;Laerm;57159;52.472;4.750;2022-09-29T01:05:43;48.91;47.74;49.87;;
69614;Laerm;57159;52.472;4.750;2022-09-29T01:06:00;48.88;48.05;49.83;;
69614;Laerm;57159;52.472;4.750;2022-09-29T01:06:13;48.93;47.80;49.79;;
69614;Laerm;57159;52.472;4.750;2022-09-29T01:06:28;48.90;48.05;49.63;;
69614;Laerm;57159;52.472;4.750;2022-09-29T01:06:47;48.89;47.86;49.91;;
69614;Laerm;57159;52.472;4.750;2022-09-29T01:06:58;48.92;47.89;50.00;;
69614;Laerm;57159;52.472;4.750;2022-09-29T01:07:08;48.96;48.16;49.92;;
69614;Laerm;57159;52.472;4.750;2022-09-29T01:07:22;48.91;48.00;49.67;;
69614;Laerm;57159;52.472;4.750;2022-09-29T01:07:33;48.89;47.93;49.71;;
69614;Laerm;57159;52.472;4.750;2022-09-29T01:07:43;48.92;47.80;49.87;;
69614;Laerm;57159;52.472;4.750;2022-09-29T01:07:55;48.89;48.02;49.80;;
69614;Laerm;57159;52.472;4.750;2022-09-29T01:08:10;48.91;48.12;49.91;;
69614;Laerm;57159;52.472;4.750;2022-09-29T01:08:24;48.94;48.02;49.90;;
69614;Laerm;57159;52.472;4.750;2022-09-29T01:08:37;49.02;48.14;50.04;;
69614;Laerm;57159;52.472;4.750;2022-09-29T01:08:51;48.98;47.85;49.93;;
69614;Laerm;57159;52.472;4.750;2022-09-29T01:09:07;49.01;48.01;50.02;;
69614;Laerm;57159;52.472;4.750;2022-09-29T01:09:18;49.00;48.08;49.73;;
69614;Laerm;57159;52.472;4.750;2022-09-29T01:09:33;48.97;48.17;49.75;;
69614;Laerm;57159;52.472;4.750;2022-09-29T01:09:44;48.94;47.91;49.89;;